createdAt,value
2019-05-03T00:02:28.433Z,11.23
2019-05-03T00:05:21.986Z,10.83
2019-05-03T00:07:52.669Z,10.90
2019-05-03T00:10:22.354Z,10.43
2019-05-03T00:12:50.371Z,11.40
2019-05-03T00:15:24.642Z,11.30
2019-05-03T00:17:52.713Z,10.80
2019-05-03T00:20:21.905Z,11.00
2019-05-03T00:22:49.857Z,12.33
2019-05-03T00:25:17.687Z,11.07
2019-05-03T00:27:45.476Z,11.93
2019-05-03T00:30:13.671Z,10.97
2019-05-03T00:32:42.796Z,10.43
2019-05-03T00:35:14.882Z,10.87
2019-05-03T00:37:44.614Z,12.80
2019-05-03T00:40:17.648Z,11.03
2019-05-03T00:42:45.459Z,10.87
2019-05-03T00:45:13.362Z,10.30
2019-05-03T00:47:42.140Z,9.67
2019-05-03T00:50:12.054Z,9.00
2019-05-03T00:52:39.943Z,9.00
2019-05-03T00:55:16.329Z,9.13
2019-05-03T00:57:37.550Z,8.77
2019-05-03T01:00:05.577Z,7.40
2019-05-03T01:02:33.341Z,7.80
2019-05-03T01:05:02.863Z,8.20
2019-05-03T01:07:31.842Z,10.10
2019-05-03T01:09:59.858Z,7.57
2019-05-03T01:12:27.668Z,8.63
2019-05-03T01:14:57.372Z,7.80
2019-05-03T01:17:25.228Z,8.73
2019-05-03T01:19:53.074Z,8.47
2019-05-03T01:22:22.609Z,6.97
2019-05-03T01:24:51.800Z,8.17
2019-05-03T01:27:21.813Z,8.00
2019-05-03T01:29:49.598Z,8.20
2019-05-03T01:32:17.406Z,8.63
2019-05-03T01:34:45.205Z,7.63
2019-05-03T01:37:12.997Z,8.20
2019-05-03T01:39:42.135Z,7.97
2019-05-03T01:42:11.826Z,8.10
2019-05-03T01:44:39.683Z,8.77
2019-05-03T01:47:11.606Z,9.30
2019-05-03T01:49:47.583Z,8.40
2019-05-03T01:52:23.022Z,8.57
2019-05-03T01:54:52.115Z,8.33
2019-05-03T01:57:21.940Z,8.97
2019-05-03T01:59:51.948Z,9.33
2019-05-03T02:02:42.055Z,8.33
2019-05-03T02:05:42.831Z,9.30
2019-05-03T02:08:13.121Z,8.60
2019-05-03T02:10:40.957Z,10.03
2019-05-03T02:13:08.801Z,8.27
2019-05-03T02:15:36.657Z,9.20
2019-05-03T02:18:04.487Z,8.33
2019-05-03T02:20:32.485Z,6.80
2019-05-03T02:23:00.417Z,8.07
2019-05-03T02:25:30.103Z,6.97
2019-05-03T02:28:01.789Z,6.60
2019-05-03T02:30:29.445Z,5.57
2019-05-03T02:32:57.263Z,7.97
2019-05-03T02:35:25.119Z,7.83
2019-05-03T02:37:53.639Z,6.33
2019-05-03T02:40:24.633Z,5.90
2019-05-03T02:43:17.145Z,6.43
2019-05-03T02:45:56.793Z,5.80
2019-05-03T02:48:31.374Z,4.20
2019-05-03T02:50:59.140Z,7.17
2019-05-03T02:53:26.964Z,4.73
2019-05-03T02:55:56.135Z,3.80
2019-05-03T02:58:25.313Z,4.70
2019-05-03T03:00:59.933Z,6.97
2019-05-03T03:03:29.312Z,5.27
2019-05-03T03:05:58.506Z,7.03
2019-05-03T03:08:28.387Z,4.80
2019-05-03T03:11:06.046Z,3.63
2019-05-03T03:13:37.016Z,4.93
2019-05-03T03:16:07.248Z,3.67
2019-05-03T03:18:37.212Z,5.87
2019-05-03T03:21:15.733Z,3.97
2019-05-03T03:24:00.035Z,6.03
2019-05-03T03:26:37.266Z,6.37
2019-05-03T03:29:06.203Z,4.87
2019-05-03T03:32:00.914Z,5.87
2019-05-03T03:34:38.878Z,4.77
2019-05-03T03:37:10.437Z,5.30
2019-05-03T03:39:36.893Z,5.07
2019-05-03T03:42:05.239Z,5.70
2019-05-03T03:44:36.329Z,5.77
2019-05-03T03:47:05.311Z,8.40
2019-05-03T03:49:36.981Z,3.90
2019-05-03T03:52:06.777Z,6.80
2019-05-03T03:54:38.822Z,5.97
2019-05-03T03:57:10.692Z,5.87
2019-05-03T03:59:38.774Z,5.40
2019-05-03T04:02:09.450Z,6.57
2019-05-03T04:04:37.915Z,6.47
2019-05-03T04:07:06.770Z,6.00
2019-05-03T04:09:36.568Z,8.10
2019-05-03T04:12:06.014Z,7.67
2019-05-03T04:14:50.641Z,8.50
2019-05-03T04:17:41.777Z,6.33
2019-05-03T04:20:10.386Z,6.37
2019-05-03T04:22:38.175Z,9.03
2019-05-03T04:25:06.388Z,9.40
2019-05-03T04:27:36.483Z,7.83
2019-05-03T04:30:07.099Z,7.00
2019-05-03T04:32:36.025Z,4.37
2019-05-03T04:35:05.387Z,4.47
2019-05-03T04:37:35.865Z,3.73
2019-05-03T04:40:06.104Z,2.37
2019-05-03T04:42:35.764Z,3.30
2019-05-03T04:45:05.879Z,3.27
2019-05-03T04:47:35.613Z,2.97
2019-05-03T04:50:05.369Z,4.20
2019-05-03T04:52:32.632Z,3.90
2019-05-03T04:55:00.618Z,4.47
2019-05-03T04:57:39.880Z,4.47
2019-05-03T04:59:58.108Z,5.93
2019-05-03T05:02:26.578Z,2.23
2019-05-03T05:04:55.561Z,5.10
2019-05-03T05:07:26.066Z,5.27
2019-05-03T05:09:55.871Z,4.20
2019-05-03T05:12:25.184Z,4.97
2019-05-03T05:14:52.844Z,3.90
2019-05-03T05:17:36.789Z,4.37
2019-05-03T05:20:11.827Z,5.90
2019-05-03T05:22:39.640Z,3.80
2019-05-03T05:25:11.320Z,5.50
2019-05-03T05:28:00.358Z,7.80
2019-05-03T05:30:28.541Z,5.67
2019-05-03T05:32:56.327Z,6.08
2019-05-03T05:35:24.858Z,4.67
2019-05-03T05:37:54.643Z,5.07
2019-05-03T05:40:24.431Z,4.73
2019-05-03T05:42:54.433Z,4.67
2019-05-03T05:45:21.936Z,5.40
2019-05-03T05:47:58.809Z,8.60
2019-05-03T05:50:32.183Z,6.03
2019-05-03T05:53:00.191Z,6.00
2019-05-03T05:55:48.057Z,6.93
2019-05-03T05:58:19.372Z,5.60
2019-05-03T06:01:14.609Z,4.37
2019-05-03T06:03:42.462Z,7.17
2019-05-03T06:06:15.296Z,3.73
2019-05-03T06:08:52.219Z,6.60
2019-05-03T06:11:31.535Z,5.77
2019-05-03T06:14:12.817Z,7.63
2019-05-03T06:16:50.567Z,4.10
2019-05-03T06:19:26.063Z,9.03
2019-05-03T06:21:59.245Z,4.00
2019-05-03T06:24:31.833Z,4.57
2019-05-03T06:27:28.341Z,7.87
2019-05-03T06:29:58.773Z,6.50
2019-05-03T06:32:37.731Z,3.67
2019-05-03T06:35:05.923Z,3.03
2019-05-03T06:37:39.625Z,5.60
2019-05-03T06:40:07.920Z,4.87
2019-05-03T06:42:35.725Z,7.13
2019-05-03T06:45:10.405Z,4.23
2019-05-03T06:47:34.853Z,6.77
2019-05-03T06:50:03.214Z,4.87
2019-05-03T06:52:31.027Z,4.47
2019-05-03T06:55:00.314Z,4.83
2019-05-03T06:57:28.810Z,7.03
2019-05-03T07:00:11.269Z,6.53
2019-05-03T07:02:48.124Z,8.93
2019-05-03T07:05:35.459Z,6.93
2019-05-03T07:08:22.975Z,4.57
2019-05-03T07:10:54.957Z,9.80
2019-05-03T07:13:22.861Z,9.10
2019-05-03T07:15:50.660Z,9.83
2019-05-03T07:18:18.442Z,5.57
2019-05-03T07:20:57.077Z,5.10
2019-05-03T07:23:25.022Z,5.27
2019-05-03T07:25:52.835Z,6.87
2019-05-03T07:28:20.664Z,7.47
2019-05-03T07:30:48.453Z,6.70
2019-05-03T07:33:22.258Z,7.13
2019-05-03T07:35:50.084Z,5.47
2019-05-03T07:38:17.911Z,5.47
2019-05-03T07:40:45.742Z,5.90
2019-05-03T07:43:14.845Z,4.07
2019-05-03T07:45:44.679Z,3.30
2019-05-03T07:48:12.551Z,3.03
2019-05-03T07:50:40.360Z,6.87
2019-05-03T07:53:08.139Z,4.10
2019-05-03T07:56:15.470Z,5.50
2019-05-03T07:58:58.631Z,4.37
2019-05-03T08:01:25.159Z,6.37
2019-05-03T08:03:55.025Z,4.37
2019-05-03T08:06:24.701Z,3.67
2019-05-03T08:08:54.405Z,4.20
2019-05-03T08:11:22.195Z,5.63
2019-05-03T08:13:49.983Z,7.37
2019-05-03T08:16:17.785Z,7.23
2019-05-03T08:18:45.799Z,4.90
2019-05-03T08:21:14.908Z,6.00
2019-05-03T08:23:42.898Z,3.53
2019-05-03T08:26:12.676Z,5.00
2019-05-03T08:28:40.557Z,4.80
2019-05-03T08:31:26.927Z,4.57
2019-05-03T08:34:23.189Z,7.27
2019-05-03T08:37:04.991Z,4.47
2019-05-03T08:39:32.468Z,3.67
2019-05-03T08:42:04.759Z,6.43
2019-05-03T08:44:35.345Z,4.97
2019-05-03T08:47:05.248Z,3.30
2019-05-03T08:49:34.801Z,2.87
2019-05-03T08:52:05.241Z,4.60
2019-05-03T08:54:34.760Z,3.07
2019-05-03T08:57:02.721Z,4.83
2019-05-03T08:59:32.770Z,3.73
2019-05-03T09:02:03.566Z,4.70
2019-05-03T09:04:37.175Z,3.93
2019-05-03T09:06:59.697Z,6.80
2019-05-03T09:09:46.151Z,3.27
2019-05-03T09:12:14.586Z,3.63
2019-05-03T09:14:45.810Z,4.57
2019-05-03T09:17:12.117Z,1.77
2019-05-03T09:19:40.035Z,5.93
2019-05-03T09:22:07.887Z,4.40
2019-05-03T09:24:35.956Z,4.03
2019-05-03T09:27:05.072Z,3.07
2019-05-03T09:29:42.512Z,3.00
2019-05-03T09:32:05.083Z,3.97
2019-05-03T09:34:34.948Z,2.83
2019-05-03T09:37:04.597Z,4.33
2019-05-03T09:39:32.990Z,2.23
2019-05-03T09:42:00.791Z,5.07
2019-05-03T09:44:28.609Z,3.93
2019-05-03T09:46:56.582Z,2.93
2019-05-03T09:49:25.345Z,3.93
2019-05-03T09:51:54.801Z,4.70
2019-05-03T09:54:28.087Z,5.63
2019-05-03T09:56:58.626Z,2.63
2019-05-03T09:59:27.365Z,3.90
2019-05-03T10:01:55.211Z,2.60
2019-05-03T10:04:23.153Z,5.33
2019-05-03T10:06:50.972Z,4.00
2019-05-03T10:09:18.733Z,3.00
2019-05-03T10:11:46.681Z,2.57
2019-05-03T10:14:15.585Z,4.40
2019-05-03T10:16:50.905Z,3.67
2019-05-03T10:19:18.714Z,3.97
2019-05-03T10:21:48.044Z,2.73
2019-05-03T10:24:15.847Z,3.23
2019-05-03T10:26:45.549Z,4.43
2019-05-03T10:29:15.236Z,5.90
2019-05-03T10:31:50.567Z,2.20
2019-05-03T10:34:18.414Z,2.20
2019-05-03T10:36:46.252Z,3.43
2019-05-03T10:39:15.455Z,5.07
2019-05-03T10:41:45.218Z,4.67
2019-05-03T10:44:15.039Z,4.37
2019-05-03T10:46:45.226Z,2.73
2019-05-03T10:49:15.146Z,4.50
2019-05-03T10:51:47.598Z,4.03
2019-05-03T10:54:15.438Z,3.87
2019-05-03T10:56:53.116Z,2.67
2019-05-03T10:59:21.858Z,3.77
2019-05-03T11:02:14.362Z,3.83
2019-05-03T11:04:44.239Z,3.63
2019-05-03T11:07:14.752Z,2.83
2019-05-03T11:09:49.763Z,2.70
2019-05-03T11:12:14.769Z,3.03
2019-05-03T11:14:42.719Z,2.43
2019-05-03T11:17:10.641Z,3.80
2019-05-03T11:19:38.447Z,5.17
2019-05-03T11:22:06.332Z,3.60
2019-05-03T11:24:34.850Z,3.13
2019-05-03T11:27:06.426Z,4.80
2019-05-03T11:29:35.563Z,2.60
2019-05-03T11:32:16.300Z,3.33
2019-05-03T11:35:04.457Z,3.07
2019-05-03T11:37:42.938Z,4.23
2019-05-03T11:40:10.926Z,3.00
2019-05-03T11:42:38.822Z,4.23
2019-05-03T11:45:06.901Z,4.37
2019-05-03T11:47:34.896Z,3.17
2019-05-03T11:50:04.026Z,3.00
2019-05-03T11:52:31.895Z,1.98
2019-05-03T11:54:59.642Z,2.13
2019-05-03T11:57:27.749Z,3.30
2019-05-03T11:59:55.688Z,4.13
2019-05-03T12:02:41.669Z,3.50
2019-05-03T12:05:16.591Z,3.97
2019-05-03T12:07:45.494Z,3.90
2019-05-03T12:10:30.084Z,4.03
2019-05-03T12:12:45.550Z,3.67
2019-05-03T12:15:15.135Z,2.73
2019-05-03T12:17:54.338Z,3.30
2019-05-03T12:20:18.094Z,2.90
2019-05-03T12:22:46.962Z,3.53
2019-05-03T12:25:16.730Z,5.43
2019-05-03T12:27:44.524Z,4.33
2019-05-03T12:30:15.217Z,3.67
2019-05-03T12:32:42.921Z,4.20
2019-05-03T12:35:10.747Z,3.30
2019-05-03T12:37:38.578Z,5.57
2019-05-03T12:40:10.981Z,2.50
2019-05-03T12:42:38.722Z,3.60
2019-05-03T12:45:06.807Z,2.80
2019-05-03T12:47:34.831Z,3.83
2019-05-03T12:50:05.102Z,4.07
2019-05-03T12:52:35.277Z,3.90
2019-05-03T12:55:04.462Z,3.77
2019-05-03T12:57:34.334Z,4.50
2019-05-03T13:00:25.098Z,4.17
2019-05-03T13:02:57.553Z,2.37
2019-05-03T13:05:25.763Z,5.70
2019-05-03T13:08:11.705Z,2.43
2019-05-03T13:10:39.516Z,4.07
2019-05-03T13:13:07.365Z,3.80
2019-05-03T13:15:35.274Z,4.07
2019-05-03T13:18:04.949Z,3.67
2019-05-03T13:20:32.890Z,2.30
2019-05-03T13:23:00.697Z,3.53
2019-05-03T13:25:29.268Z,2.30
2019-05-03T13:27:57.090Z,7.60
2019-05-03T13:30:25.141Z,2.47
2019-05-03T13:32:54.888Z,5.00
2019-05-03T13:35:22.856Z,2.83
2019-05-03T13:37:50.912Z,2.23
2019-05-03T13:40:18.789Z,3.30
2019-05-03T13:42:56.231Z,4.63
2019-05-03T13:45:16.345Z,2.23
2019-05-03T13:47:44.773Z,2.67
2019-05-03T13:50:14.974Z,3.53
2019-05-03T13:52:42.467Z,4.00
2019-05-03T13:55:10.233Z,4.07
2019-05-03T13:57:38.039Z,3.50
2019-05-03T14:00:06.172Z,2.20
2019-05-03T14:02:35.753Z,4.23
2019-05-03T14:05:04.936Z,3.07
2019-05-03T14:07:35.205Z,3.00
2019-05-03T14:10:02.732Z,2.50
2019-05-03T14:12:30.590Z,2.77
2019-05-03T14:14:58.370Z,4.03
2019-05-03T14:17:28.268Z,5.33
2019-05-03T14:20:21.743Z,3.80
2019-05-03T14:22:51.124Z,2.80
2019-05-03T14:25:18.942Z,4.90
2019-05-03T14:27:46.771Z,4.37
2019-05-03T14:30:15.159Z,5.47
2019-05-03T14:32:45.131Z,2.60
2019-05-03T14:35:14.422Z,2.90
2019-05-03T14:37:42.744Z,2.40
2019-05-03T14:40:10.616Z,2.40
2019-05-03T14:42:38.421Z,4.70
2019-05-03T14:45:06.743Z,3.47
2019-05-03T14:47:34.575Z,3.80
2019-05-03T14:50:02.469Z,2.33
2019-05-03T14:52:30.340Z,3.57
2019-05-03T14:55:06.653Z,2.90
2019-05-03T14:57:38.334Z,4.13
2019-05-03T15:00:17.318Z,4.60
2019-05-03T15:03:05.908Z,2.53
2019-05-03T15:05:34.768Z,3.87
2019-05-03T15:08:02.966Z,2.20
2019-05-03T15:10:30.841Z,6.13
2019-05-03T15:12:58.795Z,5.33
2019-05-03T15:15:28.815Z,4.07
2019-05-03T15:17:56.391Z,4.23
2019-05-03T15:20:25.532Z,3.50
2019-05-03T15:22:54.831Z,3.10
2019-05-03T15:25:24.930Z,4.67
2019-05-03T15:27:52.493Z,2.47
2019-05-03T15:30:20.773Z,3.10
2019-05-03T15:32:57.679Z,2.83
2019-05-03T15:35:18.659Z,3.73
2019-05-03T15:37:46.472Z,4.57
2019-05-03T15:40:15.703Z,3.90
2019-05-03T15:42:48.868Z,3.87
2019-05-03T15:45:39.061Z,4.83
2019-05-03T15:48:15.047Z,3.07
2019-05-03T15:50:44.626Z,3.97
2019-05-03T15:53:12.550Z,5.23
2019-05-03T15:55:40.374Z,3.90
2019-05-03T15:58:08.179Z,5.20
2019-05-03T16:00:35.988Z,2.20
2019-05-03T16:03:08.964Z,3.53
2019-05-03T16:05:35.415Z,3.80
2019-05-03T16:08:04.625Z,4.07
2019-05-03T16:10:32.573Z,4.23
2019-05-03T16:13:00.380Z,3.63
2019-05-03T16:15:28.160Z,6.00
2019-05-03T16:17:55.967Z,2.30
2019-05-03T16:20:25.142Z,4.13
2019-05-03T16:22:54.452Z,3.93
2019-05-03T16:25:24.915Z,3.50
2019-05-03T16:27:59.115Z,2.87
2019-05-03T16:30:52.143Z,3.63
2019-05-03T16:33:27.010Z,3.40
2019-05-03T16:35:49.635Z,3.50
2019-05-03T16:38:17.415Z,2.83
2019-05-03T16:40:45.286Z,3.37
2019-05-03T16:43:13.166Z,4.63
2019-05-03T16:45:41.024Z,4.37
2019-05-03T16:48:08.810Z,2.87
2019-05-03T16:50:36.596Z,3.83
2019-05-03T16:53:05.591Z,5.57
2019-05-03T16:55:35.147Z,4.83
2019-05-03T16:58:03.321Z,4.10
2019-05-03T17:00:31.142Z,1.80
2019-05-03T17:02:58.971Z,2.93
2019-05-03T17:06:01.294Z,2.43
2019-05-03T17:08:47.203Z,2.80
2019-05-03T17:11:17.316Z,7.07
2019-05-03T17:13:47.615Z,3.47
2019-05-03T17:16:14.835Z,2.73
2019-05-03T17:18:44.664Z,3.30
2019-05-03T17:21:14.598Z,5.23
2019-05-03T17:23:42.178Z,4.90
2019-05-03T17:26:10.000Z,4.27
2019-05-03T17:28:37.883Z,2.80
2019-05-03T17:31:05.693Z,6.10
2019-05-03T17:33:34.840Z,5.77
2019-05-03T17:36:02.790Z,2.60
2019-05-03T17:38:30.607Z,2.87
2019-05-03T17:41:25.590Z,3.47
2019-05-03T17:44:00.082Z,2.33
2019-05-03T17:46:27.899Z,3.50
2019-05-03T17:48:55.747Z,4.63
2019-05-03T17:51:45.582Z,3.87
2019-05-03T17:54:33.415Z,5.80
2019-05-03T17:57:07.992Z,2.60
2019-05-03T17:59:40.148Z,3.40
2019-05-03T18:02:45.573Z,3.23
2019-05-03T18:05:22.057Z,3.53
2019-05-03T18:08:27.511Z,4.60
2019-05-03T18:11:08.056Z,4.93
2019-05-03T18:13:35.889Z,5.77
2019-05-03T18:16:04.762Z,3.27
2019-05-03T18:18:32.760Z,3.53
2019-05-03T18:21:00.661Z,4.60
2019-05-03T18:23:28.508Z,5.07
2019-05-03T18:25:56.325Z,1.93
2019-05-03T18:28:25.012Z,2.30
2019-05-03T18:30:54.577Z,3.17
2019-05-03T18:33:24.579Z,4.17
2019-05-03T18:35:52.445Z,3.73
2019-05-03T18:38:22.268Z,4.03
2019-05-03T18:40:50.105Z,4.73
2019-05-03T18:43:25.958Z,4.77
2019-05-03T18:46:22.262Z,6.93
2019-05-03T18:48:50.468Z,4.43
2019-05-03T18:51:18.428Z,3.57
2019-05-03T18:53:46.301Z,3.93
2019-05-03T18:56:14.746Z,6.93
2019-05-03T18:58:44.700Z,5.43
2019-05-03T19:01:14.680Z,4.27
2019-05-03T19:03:45.118Z,3.47
2019-05-03T19:06:14.191Z,5.67
2019-05-03T19:09:00.220Z,4.67
2019-05-03T19:11:35.198Z,4.43
2019-05-03T19:14:05.513Z,5.10
2019-05-03T19:16:45.417Z,3.13
2019-05-03T19:19:13.734Z,4.50
2019-05-03T19:21:41.566Z,4.07
2019-05-03T19:24:09.570Z,4.60
2019-05-03T19:26:37.421Z,3.23
2019-05-03T19:29:05.295Z,4.63
2019-05-03T19:31:35.604Z,6.60
2019-05-03T19:34:03.667Z,5.00
2019-05-03T19:36:31.501Z,3.50
2019-05-03T19:38:59.676Z,3.87
2019-05-03T19:41:27.483Z,4.83
2019-05-03T19:43:55.361Z,4.43
2019-05-03T19:46:24.835Z,4.20
2019-05-03T19:48:54.585Z,5.27
2019-05-03T19:51:22.493Z,3.53
2019-05-03T19:53:55.087Z,4.87
2019-05-03T19:56:25.350Z,4.13
2019-05-03T19:58:57.285Z,4.37
2019-05-03T20:01:44.781Z,4.80
2019-05-03T20:04:35.086Z,5.13
2019-05-03T20:07:21.332Z,6.77
2019-05-03T20:09:49.224Z,4.40
2019-05-03T20:12:17.068Z,5.03
2019-05-03T20:14:45.115Z,4.67
2019-05-03T20:17:14.686Z,3.83
2019-05-03T20:19:42.679Z,5.50
2019-05-03T20:22:10.635Z,3.97
2019-05-03T20:24:38.439Z,3.30
2019-05-03T20:27:06.278Z,4.80
2019-05-03T20:29:34.521Z,5.23
2019-05-03T20:32:02.419Z,3.00
2019-05-03T20:34:30.238Z,4.40
2019-05-03T20:36:58.050Z,3.77
2019-05-03T20:39:25.853Z,6.00
2019-05-03T20:41:55.041Z,4.10
2019-05-03T20:44:45.251Z,3.90
2019-05-03T20:47:34.737Z,5.13
2019-05-03T20:50:15.889Z,4.30
2019-05-03T20:52:44.479Z,5.40
2019-05-03T20:55:15.351Z,4.67
2019-05-03T20:57:44.417Z,2.53
2019-05-03T21:00:17.234Z,5.47
2019-05-03T21:02:53.483Z,5.20
2019-05-03T21:05:26.705Z,3.77
2019-05-03T21:07:45.494Z,4.17
2019-05-03T21:10:15.665Z,6.83
2019-05-03T21:12:43.423Z,6.07
2019-05-03T21:15:19.370Z,6.40
2019-05-03T21:18:05.164Z,5.77
2019-05-03T21:20:49.857Z,5.83
2019-05-03T21:23:18.902Z,5.10
2019-05-03T21:26:12.584Z,6.87
2019-05-03T21:28:34.712Z,5.30
2019-05-03T21:31:02.527Z,5.10
2019-05-03T21:33:30.362Z,5.73
2019-05-03T21:35:58.171Z,4.50
2019-05-03T21:38:26.004Z,5.27
2019-05-03T21:40:54.682Z,4.77
2019-05-03T21:43:22.576Z,7.73
2019-05-03T21:45:55.975Z,6.43
2019-05-03T21:48:28.801Z,5.93
2019-05-03T21:50:56.592Z,7.10
2019-05-03T21:53:25.121Z,4.90
2019-05-03T21:55:53.025Z,4.13
2019-05-03T21:58:20.842Z,5.57
2019-05-03T22:00:54.739Z,5.33
2019-05-03T22:03:22.592Z,7.03
2019-05-03T22:05:54.986Z,6.90
2019-05-03T22:08:20.226Z,3.63
2019-05-03T22:10:48.008Z,4.70
2019-05-03T22:13:16.937Z,5.93
2019-05-03T22:15:52.893Z,4.90
2019-05-03T22:18:24.729Z,5.97
2019-05-03T22:21:15.355Z,5.13
2019-05-03T22:24:07.404Z,5.50
2019-05-03T22:26:53.191Z,5.97
2019-05-03T22:29:21.025Z,5.30
2019-05-03T22:31:48.830Z,4.97
2019-05-03T22:34:16.611Z,4.23
2019-05-03T22:36:44.564Z,4.90
2019-05-03T22:39:12.433Z,3.73
2019-05-03T22:41:40.231Z,4.93
2019-05-03T22:44:08.339Z,7.60
2019-05-03T22:46:36.372Z,6.70
2019-05-03T22:49:04.888Z,3.20
2019-05-03T22:51:34.509Z,4.13
2019-05-03T22:54:02.463Z,6.73
2019-05-03T22:56:30.776Z,6.00
2019-05-03T22:58:58.553Z,5.77
2019-05-03T23:01:26.377Z,6.60
2019-05-03T23:03:55.110Z,4.70
2019-05-03T23:06:25.050Z,5.03
2019-05-03T23:08:55.915Z,7.40
2019-05-03T23:11:24.416Z,6.97
2019-05-03T23:14:00.732Z,3.80
2019-05-03T23:16:30.831Z,4.67
2019-05-03T23:18:58.751Z,5.10
2019-05-03T23:21:29.072Z,5.83
2019-05-03T23:23:56.889Z,4.20
2019-05-03T23:26:25.474Z,5.30
2019-05-03T23:28:55.116Z,4.40
2019-05-03T23:31:25.000Z,5.00
2019-05-03T23:33:54.470Z,5.60
2019-05-03T23:36:32.860Z,5.63
2019-05-03T23:38:52.129Z,4.97
2019-05-03T23:41:19.963Z,6.40
2019-05-03T23:43:47.782Z,3.93
2019-05-03T23:46:17.521Z,5.23
2019-05-03T23:48:45.302Z,4.87
2019-05-03T23:51:32.711Z,5.70
2019-05-03T23:54:01.199Z,5.50
2019-05-03T23:56:28.982Z,2.90
2019-05-03T23:58:56.796Z,3.73
